sensor_id;sensor_type;location;lat;lon;timestamp;P1;durP1;ratioP1;P2;durP2;ratioP2
3231;SDS011;1628;48.884;9.210;2022-12-07T05:02:37;16.00;;;14.60;;
3231;SDS011;1628;48.884;9.210;2022-12-07T05:05:04;15.27;;;13.70;;
3231;SDS011;1628;48.884;9.210;2022-12-07T05:07:31;15.43;;;13.97;;
3231;SDS011;1628;48.884;9.210;2022-12-07T05:09:57;14.80;;;13.47;;
3231;SDS011;1628;48.884;9.210;2022-12-07T05:12:25;15.70;;;14.30;;
3231;SDS011;1628;48.884;9.210;2022-12-07T05:14:52;16.93;;;15.40;;
3231;SDS011;1628;48.884;9.210;2022-12-07T05:17:18;17.70;;;16.00;;
3231;SDS011;1628;48.884;9.210;2022-12-07T05:19:46;17.73;;;16.03;;
3231;SDS011;1628;48.884;9.210;2022-12-07T05:22:13;17.93;;;16.23;;
3231;SDS011;1628;48.884;9.210;2022-12-07T05:24:40;16.47;;;14.97;;
3231;SDS011;1628;48.884;9.210;2022-12-07T05:27:07;16.80;;;15.30;;
3231;SDS011;1628;48.884;9.210;2022-12-07T05:29:33;15.20;;;13.80;;
3231;SDS011;1628;48.884;9.210;2022-12-07T05:32:00;17.93;;;16.17;;
3231;SDS011;1628;48.884;9.210;2022-12-07T05:34:26;16.13;;;14.67;;
3231;SDS011;1628;48.884;9.210;2022-12-07T05:36:54;16.30;;;14.77;;
3231;SDS011;1628;48.884;9.210;2022-12-07T05:39:21;16.37;;;14.67;;
3231;SDS011;1628;48.884;9.210;2022-12-07T05:41:48;15.50;;;14.00;;
3231;SDS011;1628;48.884;9.210;2022-12-07T05:44:31;17.97;;;16.07;;
3231;SDS011;1628;48.884;9.210;2022-12-07T05:46:58;16.30;;;14.67;;
3231;SDS011;1628;48.884;9.210;2022-12-07T05:49:25;19.37;;;15.07;;
3231;SDS011;1628;48.884;9.210;2022-12-07T05:51:51;14.73;;;13.33;;
3231;SDS011;1628;48.884;9.210;2022-12-07T05:54:19;14.73;;;13.40;;
3231;SDS011;1628;48.884;9.210;2022-12-07T05:56:46;16.50;;;14.90;;
3231;SDS011;1628;48.884;9.210;2022-12-07T05:59:13;16.10;;;14.50;;
3231;SDS011;1628;48.884;9.210;2022-12-07T06:01:48;15.80;;;14.30;;
3231;SDS011;1628;48.884;9.210;2022-12-07T06:04:15;16.20;;;14.60;;
3231;SDS011;1628;48.884;9.210;2022-12-07T06:06:43;15.23;;;13.70;;
3231;SDS011;1628;48.884;9.210;2022-12-07T06:09:09;14.80;;;13.40;;
3231;SDS011;1628;48.884;9.210;2022-12-07T06:11:38;14.50;;;13.20;;
3231;SDS011;1628;48.884;9.210;2022-12-07T06:14:23;14.17;;;12.77;;
3231;SDS011;1628;48.884;9.210;2022-12-07T06:16:49;14.30;;;12.90;;
3231;SDS011;1628;48.884;9.210;2022-12-07T06:19:16;15.60;;;14.07;;
3231;SDS011;1628;48.884;9.210;2022-12-07T06:21:43;14.83;;;13.33;;
3231;SDS011;1628;48.884;9.210;2022-12-07T06:24:10;15.80;;;14.23;;
3231;SDS011;1628;48.884;9.210;2022-12-07T06:26:39;15.47;;;13.87;;
3231;SDS011;1628;48.884;9.210;2022-12-07T06:29:06;15.23;;;13.80;;
3231;SDS011;1628;48.884;9.210;2022-12-07T06:31:32;15.70;;;14.20;;
3231;SDS011;1628;48.884;9.210;2022-12-07T06:33:59;16.07;;;14.57;;
3231;SDS011;1628;48.884;9.210;2022-12-07T06:36:27;16.03;;;14.43;;
3231;SDS011;1628;48.884;9.210;2022-12-07T06:38:54;13.83;;;12.43;;
3231;SDS011;1628;48.884;9.210;2022-12-07T06:41:21;14.10;;;12.53;;
3231;SDS011;1628;48.884;9.210;2022-12-07T06:43:49;15.63;;;13.97;;
3231;SDS011;1628;48.884;9.210;2022-12-07T06:46:16;12.23;;;10.93;;
3231;SDS011;1628;48.884;9.210;2022-12-07T06:48:43;11.87;;;10.73;;
3231;SDS011;1628;48.884;9.210;2022-12-07T06:51:10;11.63;;;10.63;;
3231;SDS011;1628;48.884;9.210;2022-12-07T06:53:36;12.50;;;11.40;;
3231;SDS011;1628;48.884;9.210;2022-12-07T06:56:04;12.37;;;11.17;;
3231;SDS011;1628;48.884;9.210;2022-12-07T06:58:31;11.93;;;10.80;;
3231;SDS011;1628;48.884;9.210;2022-12-07T07:00:59;14.23;;;11.30;;
3231;SDS011;1628;48.884;9.210;2022-12-07T07:03:25;10.93;;;9.83;;
3231;SDS011;1628;48.884;9.210;2022-12-07T07:05:52;11.67;;;10.67;;
3231;SDS011;1628;48.884;9.210;2022-12-07T07:08:19;10.20;;;9.17;;
3231;SDS011;1628;48.884;9.210;2022-12-07T07:10:45;11.40;;;10.30;;
3231;SDS011;1628;48.884;9.210;2022-12-07T07:13:12;13.20;;;11.90;;
3231;SDS011;1628;48.884;9.210;2022-12-07T07:15:38;10.93;;;9.60;;
3231;SDS011;1628;48.884;9.210;2022-12-07T07:18:06;11.30;;;10.20;;
3231;SDS011;1628;48.884;9.210;2022-12-07T07:20:33;10.60;;;9.60;;
3231;SDS011;1628;48.884;9.210;2022-12-07T07:23:00;10.80;;;9.73;;
3231;SDS011;1628;48.884;9.210;2022-12-07T07:25:27;10.87;;;8.63;;
3231;SDS011;1628;48.884;9.210;2022-12-07T07:27:53;9.30;;;8.40;;
3231;SDS011;1628;48.884;9.210;2022-12-07T07:30:20;9.27;;;8.40;;
3231;SDS011;1628;48.884;9.210;2022-12-07T07:32:47;9.50;;;8.70;;
3231;SDS011;1628;48.884;9.210;2022-12-07T07:35:15;10.47;;;9.47;;
3231;SDS011;1628;48.884;9.210;2022-12-07T07:37:42;10.23;;;9.27;;
3231;SDS011;1628;48.884;9.210;2022-12-07T07:40:09;9.00;;;8.20;;
3231;SDS011;1628;48.884;9.210;2022-12-07T07:42:36;8.60;;;7.80;;
3231;SDS011;1628;48.884;9.210;2022-12-07T07:45:03;9.63;;;8.80;;
3231;SDS011;1628;48.884;9.210;2022-12-07T07:47:30;8.70;;;8.00;;
3231;SDS011;1628;48.884;9.210;2022-12-07T07:49:57;9.40;;;8.60;;
3231;SDS011;1628;48.884;9.210;2022-12-07T07:52:25;9.80;;;8.90;;
3231;SDS011;1628;48.884;9.210;2022-12-07T07:54:52;8.90;;;8.10;;
3231;SDS011;1628;48.884;9.210;2022-12-07T07:57:18;8.47;;;7.77;;
3231;SDS011;1628;48.884;9.210;2022-12-07T07:59:45;8.87;;;8.17;;
3231;SDS011;1628;48.884;9.210;2022-12-07T08:02:13;9.93;;;8.93;;
3231;SDS011;1628;48.884;9.210;2022-12-07T08:04:41;8.20;;;7.50;;
3231;SDS011;1628;48.884;9.210;2022-12-07T08:07:08;8.83;;;8.03;;
3231;SDS011;1628;48.884;9.210;2022-12-07T08:09:36;8.90;;;8.20;;
3231;SDS011;1628;48.884;9.210;2022-12-07T08:12:03;9.07;;;8.17;;
3231;SDS011;1628;48.884;9.210;2022-12-07T08:14:30;8.03;;;7.33;;
3231;SDS011;1628;48.884;9.210;2022-12-07T08:16:56;11.23;;;9.77;;
3231;SDS011;1628;48.884;9.210;2022-12-07T08:19:23;11.40;;;8.53;;
3231;SDS011;1628;48.884;9.210;2022-12-07T08:21:50;8.63;;;7.70;;
3231;SDS011;1628;48.884;9.210;2022-12-07T08:24:17;8.33;;;7.53;;
3231;SDS011;1628;48.884;9.210;2022-12-07T08:26:45;9.60;;;8.37;;
3231;SDS011;1628;48.884;9.210;2022-12-07T08:29:11;8.70;;;7.90;;
3231;SDS011;1628;48.884;9.210;2022-12-07T08:31:38;8.23;;;7.53;;
3231;SDS011;1628;48.884;9.210;2022-12-07T08:34:05;8.27;;;7.53;;
3231;SDS011;1628;48.884;9.210;2022-12-07T08:36:31;9.23;;;8.30;;
3231;SDS011;1628;48.884;9.210;2022-12-07T08:38:58;9.13;;;8.33;;
3231;SDS011;1628;48.884;9.210;2022-12-07T08:41:25;8.90;;;8.10;;
3231;SDS011;1628;48.884;9.210;2022-12-07T08:43:53;7.97;;;7.30;;
3231;SDS011;1628;48.884;9.210;2022-12-07T08:46:21;7.77;;;7.03;;
3231;SDS011;1628;48.884;9.210;2022-12-07T08:48:51;9.80;;;8.10;;
3231;SDS011;1628;48.884;9.210;2022-12-07T08:51:21;13.47;;;8.30;;
3231;SDS011;1628;48.884;9.210;2022-12-07T08:53:49;10.53;;;9.47;;
3231;SDS011;1628;48.884;9.210;2022-12-07T08:56:17;10.63;;;9.03;;
3231;SDS011;1628;48.884;9.210;2022-12-07T08:58:44;10.03;;;9.03;;
3231;SDS011;1628;48.884;9.210;2022-12-07T09:01:12;8.77;;;7.87;;
3231;SDS011;1628;48.884;9.210;2022-12-07T09:03:39;9.00;;;8.10;;
3231;SDS011;1628;48.884;9.210;2022-12-07T09:06:05;8.93;;;8.00;;
3231;SDS011;1628;48.884;9.210;2022-12-07T09:08:34;8.50;;;7.80;;
3231;SDS011;1628;48.884;9.210;2022-12-07T09:11:05;10.73;;;7.27;;
3231;SDS011;1628;48.884;9.210;2022-12-07T09:13:31;8.80;;;8.00;;
3231;SDS011;1628;48.884;9.210;2022-12-07T09:15:58;7.67;;;6.90;;
3231;SDS011;1628;48.884;9.210;2022-12-07T09:18:26;8.03;;;7.30;;
3231;SDS011;1628;48.884;9.210;2022-12-07T09:20:53;8.23;;;7.50;;
3231;SDS011;1628;48.884;9.210;2022-12-07T09:23:19;8.23;;;7.43;;
3231;SDS011;1628;48.884;9.210;2022-12-07T09:25:46;7.57;;;6.87;;
3231;SDS011;1628;48.884;9.210;2022-12-07T09:28:13;12.73;;;7.73;;
3231;SDS011;1628;48.884;9.210;2022-12-07T09:30:44;7.10;;;6.50;;
3231;SDS011;1628;48.884;9.210;2022-12-07T09:33:11;5.80;;;5.30;;
3231;SDS011;1628;48.884;9.210;2022-12-07T09:35:44;5.13;;;4.83;;
3231;SDS011;1628;48.884;9.210;2022-12-07T09:38:11;5.70;;;5.27;;
3231;SDS011;1628;48.884;9.210;2022-12-07T09:40:38;5.80;;;5.33;;
3231;SDS011;1628;48.884;9.210;2022-12-07T09:43:10;5.90;;;5.40;;
3231;SDS011;1628;48.884;9.210;2022-12-07T09:45:39;9.10;;;6.40;;
3231;SDS011;1628;48.884;9.210;2022-12-07T09:48:08;6.50;;;5.90;;
3231;SDS011;1628;48.884;9.210;2022-12-07T09:50:44;6.33;;;5.80;;
3231;SDS011;1628;48.884;9.210;2022-12-07T09:53:13;6.80;;;6.30;;
3231;SDS011;1628;48.884;9.210;2022-12-07T09:55:43;7.43;;;6.83;;
3231;SDS011;1628;48.884;9.210;2022-12-07T09:58:11;7.10;;;6.47;;
3231;SDS011;1628;48.884;9.210;2022-12-07T10:00:45;6.90;;;6.30;;
3231;SDS011;1628;48.884;9.210;2022-12-07T10:03:12;7.27;;;6.73;;
3231;SDS011;1628;48.884;9.210;2022-12-07T10:05:39;7.13;;;6.53;;
3231;SDS011;1628;48.884;9.210;2022-12-07T10:08:11;6.93;;;6.37;;
3231;SDS011;1628;48.884;9.210;2022-12-07T10:10:38;7.07;;;6.47;;
3231;SDS011;1628;48.884;9.210;2022-12-07T10:13:07;7.10;;;6.40;;
3231;SDS011;1628;48.884;9.210;2022-12-07T10:18:27;6.40;;;5.90;;
3231;SDS011;1628;48.884;9.210;2022-12-07T10:21:03;6.30;;;5.70;;
3231;SDS011;1628;48.884;9.210;2022-12-07T10:23:41;9.90;;;5.70;;
3231;SDS011;1628;48.884;9.210;2022-12-07T10:26:28;4.87;;;4.57;;
3231;SDS011;1628;48.884;9.210;2022-12-07T10:28:58;4.80;;;4.50;;
3231;SDS011;1628;48.884;9.210;2022-12-07T10:31:27;5.27;;;4.87;;
3231;SDS011;1628;48.884;9.210;2022-12-07T10:33:55;4.87;;;4.47;;
3231;SDS011;1628;48.884;9.210;2022-12-07T10:36:24;6.13;;;5.63;;
3231;SDS011;1628;48.884;9.210;2022-12-07T10:38:57;5.70;;;5.13;;
3231;SDS011;1628;48.884;9.210;2022-12-07T10:41:26;6.47;;;4.43;;
3231;SDS011;1628;48.884;9.210;2022-12-07T10:43:54;5.23;;;4.83;;
3231;SDS011;1628;48.884;9.210;2022-12-07T10:46:40;5.63;;;5.20;;
3231;SDS011;1628;48.884;9.210;2022-12-07T10:49:24;5.70;;;5.30;;
3231;SDS011;1628;48.884;9.210;2022-12-07T10:52:09;7.77;;;5.00;;
3231;SDS011;1628;48.884;9.210;2022-12-07T10:54:47;6.03;;;5.53;;
3231;SDS011;1628;48.884;9.210;2022-12-07T10:57:27;5.87;;;5.47;;
3231;SDS011;1628;48.884;9.210;2022-12-07T11:00:08;5.77;;;5.27;;
3231;SDS011;1628;48.884;9.210;2022-12-07T11:05:50;6.07;;;5.30;;
3231;SDS011;1628;48.884;9.210;2022-12-07T11:08:27;7.33;;;6.63;;
3231;SDS011;1628;48.884;9.210;2022-12-07T11:11:07;6.13;;;5.63;;
3231;SDS011;1628;48.884;9.210;2022-12-07T11:13:40;6.53;;;5.90;;
3231;SDS011;1628;48.884;9.210;2022-12-07T11:16:16;7.20;;;6.60;;
3231;SDS011;1628;48.884;9.210;2022-12-07T11:18:51;7.00;;;6.40;;
3231;SDS011;1628;48.884;9.210;2022-12-07T11:21:31;6.33;;;5.73;;
3231;SDS011;1628;48.884;9.210;2022-12-07T11:24:09;6.63;;;6.20;;
3231;SDS011;1628;48.884;9.210;2022-12-07T11:26:48;7.93;;;7.00;;
3231;SDS011;1628;48.884;9.210;2022-12-07T11:29:30;9.27;;;8.37;;
3231;SDS011;1628;48.884;9.210;2022-12-07T11:32:11;8.00;;;7.20;;
3231;SDS011;1628;48.884;9.210;2022-12-07T11:34:46;8.50;;;7.83;;
3231;SDS011;1628;48.884;9.210;2022-12-07T11:37:25;9.70;;;8.30;;
3231;SDS011;1628;48.884;9.210;2022-12-07T11:39:57;9.97;;;9.07;;
3231;SDS011;1628;48.884;9.210;2022-12-07T11:42:29;9.37;;;8.60;;
3231;SDS011;1628;48.884;9.210;2022-12-07T11:45:02;9.73;;;8.93;;
3231;SDS011;1628;48.884;9.210;2022-12-07T11:47:38;9.63;;;8.83;;
3231;SDS011;1628;48.884;9.210;2022-12-07T11:50:14;8.73;;;7.93;;
3231;SDS011;1628;48.884;9.210;2022-12-07T11:52:51;10.63;;;8.50;;
3231;SDS011;1628;48.884;9.210;2022-12-07T11:55:24;10.17;;;9.03;;
3231;SDS011;1628;48.884;9.210;2022-12-07T11:57:58;9.60;;;8.70;;
3231;SDS011;1628;48.884;9.210;2022-12-07T12:00:30;9.00;;;8.30;;
3231;SDS011;1628;48.884;9.210;2022-12-07T12:02:58;10.23;;;9.33;;
3231;SDS011;1628;48.884;9.210;2022-12-07T12:05:29;9.33;;;8.43;;
3231;SDS011;1628;48.884;9.210;2022-12-07T12:07:59;9.53;;;8.37;;
3231;SDS011;1628;48.884;9.210;2022-12-07T12:10:33;8.70;;;7.90;;
3231;SDS011;1628;48.884;9.210;2022-12-07T12:16:03;9.43;;;8.60;;
3231;SDS011;1628;48.884;9.210;2022-12-07T12:18:44;9.60;;;8.70;;
3231;SDS011;1628;48.884;9.210;2022-12-07T12:21:34;9.80;;;8.80;;
3231;SDS011;1628;48.884;9.210;2022-12-07T12:24:02;9.60;;;8.70;;
3231;SDS011;1628;48.884;9.210;2022-12-07T12:26:33;10.37;;;8.53;;
3231;SDS011;1628;48.884;9.210;2022-12-07T12:29:04;9.30;;;8.50;;
3231;SDS011;1628;48.884;9.210;2022-12-07T12:31:35;9.67;;;8.77;;
3231;SDS011;1628;48.884;9.210;2022-12-07T12:34:10;11.50;;;10.40;;
3231;SDS011;1628;48.884;9.210;2022-12-07T12:37:07;10.10;;;9.30;;
3231;SDS011;1628;48.884;9.210;2022-12-07T12:42:58;9.80;;;8.97;;
3231;SDS011;1628;48.884;9.210;2022-12-07T12:45:26;13.20;;;9.17;;
3231;SDS011;1628;48.884;9.210;2022-12-07T12:47:54;10.40;;;9.57;;
3231;SDS011;1628;48.884;9.210;2022-12-07T12:50:31;10.50;;;9.50;;
3231;SDS011;1628;48.884;9.210;2022-12-07T12:53:12;11.90;;;10.70;;
3231;SDS011;1628;48.884;9.210;2022-12-07T12:58:38;9.33;;;8.53;;
3231;SDS011;1628;48.884;9.210;2022-12-07T13:04:30;9.00;;;8.30;;
3231;SDS011;1628;48.884;9.210;2022-12-07T13:07:10;11.07;;;10.17;;
3231;SDS011;1628;48.884;9.210;2022-12-07T13:09:39;10.40;;;9.53;;
3231;SDS011;1628;48.884;9.210;2022-12-07T13:12:11;10.53;;;9.40;;
3231;SDS011;1628;48.884;9.210;2022-12-07T13:14:51;10.90;;;10.00;;
3231;SDS011;1628;48.884;9.210;2022-12-07T13:23:23;13.20;;;11.97;;
3231;SDS011;1628;48.884;9.210;2022-12-07T13:25:57;13.43;;;12.17;;
3231;SDS011;1628;48.884;9.210;2022-12-07T13:28:43;15.67;;;11.33;;
3231;SDS011;1628;48.884;9.210;2022-12-07T13:34:01;13.50;;;11.73;;
3231;SDS011;1628;48.884;9.210;2022-12-07T13:36:30;13.10;;;11.90;;
3231;SDS011;1628;48.884;9.210;2022-12-07T13:39:15;13.30;;;12.00;;
3231;SDS011;1628;48.884;9.210;2022-12-07T13:41:44;12.80;;;11.50;;
3231;SDS011;1628;48.884;9.210;2022-12-07T13:44:16;11.77;;;10.60;;
3231;SDS011;1628;48.884;9.210;2022-12-07T13:46:45;11.93;;;10.80;;
3231;SDS011;1628;48.884;9.210;2022-12-07T13:49:19;15.70;;;11.87;;
3231;SDS011;1628;48.884;9.210;2022-12-07T13:51:48;12.77;;;11.67;;
3231;SDS011;1628;48.884;9.210;2022-12-07T13:54:16;12.50;;;11.30;;
3231;SDS011;1628;48.884;9.210;2022-12-07T13:56:43;13.97;;;12.57;;
3231;SDS011;1628;48.884;9.210;2022-12-07T13:59:16;15.13;;;13.73;;
3231;SDS011;1628;48.884;9.210;2022-12-07T14:01:44;12.90;;;11.77;;
3231;SDS011;1628;48.884;9.210;2022-12-07T14:04:16;13.80;;;12.60;;
3231;SDS011;1628;48.884;9.210;2022-12-07T14:06:48;14.20;;;12.90;;
3231;SDS011;1628;48.884;9.210;2022-12-07T14:09:18;14.20;;;12.60;;
3231;SDS011;1628;48.884;9.210;2022-12-07T14:11:47;17.40;;;12.83;;
3231;SDS011;1628;48.884;9.210;2022-12-07T14:14:16;13.80;;;12.50;;
3231;SDS011;1628;48.884;9.210;2022-12-07T14:16:54;15.40;;;13.80;;
3231;SDS011;1628;48.884;9.210;2022-12-07T14:19:43;14.83;;;13.43;;
3231;SDS011;1628;48.884;9.210;2022-12-07T14:22:19;14.90;;;13.40;;
3231;SDS011;1628;48.884;9.210;2022-12-07T14:24:57;14.83;;;13.40;;
3231;SDS011;1628;48.884;9.210;2022-12-07T14:27:30;16.03;;;14.33;;
3231;SDS011;1628;48.884;9.210;2022-12-07T14:29:59;14.80;;;13.27;;
3231;SDS011;1628;48.884;9.210;2022-12-07T14:32:26;14.63;;;13.23;;
3231;SDS011;1628;48.884;9.210;2022-12-07T14:34:55;13.97;;;12.67;;
3231;SDS011;1628;48.884;9.210;2022-12-07T14:37:23;13.53;;;12.23;;
3231;SDS011;1628;48.884;9.210;2022-12-07T14:39:50;16.20;;;13.93;;
3231;SDS011;1628;48.884;9.210;2022-12-07T14:42:18;14.17;;;12.73;;
3231;SDS011;1628;48.884;9.210;2022-12-07T14:44:45;15.07;;;13.57;;
3231;SDS011;1628;48.884;9.210;2022-12-07T14:47:12;15.93;;;13.23;;
3231;SDS011;1628;48.884;9.210;2022-12-07T14:49:39;14.10;;;12.77;;
3231;SDS011;1628;48.884;9.210;2022-12-07T14:52:05;14.57;;;13.07;;
3231;SDS011;1628;48.884;9.210;2022-12-07T14:54:35;15.53;;;12.23;;
3231;SDS011;1628;48.884;9.210;2022-12-07T14:57:02;14.00;;;12.50;;
3231;SDS011;1628;48.884;9.210;2022-12-07T14:59:30;12.57;;;11.43;;
3231;SDS011;1628;48.884;9.210;2022-12-07T15:01:57;17.33;;;12.87;;
3231;SDS011;1628;48.884;9.210;2022-12-07T15:04:23;14.10;;;12.63;;
3231;SDS011;1628;48.884;9.210;2022-12-07T15:06:57;14.67;;;12.40;;
3231;SDS011;1628;48.884;9.210;2022-12-07T15:09:24;14.90;;;13.47;;
3231;SDS011;1628;48.884;9.210;2022-12-07T15:11:50;15.10;;;13.30;;
3231;SDS011;1628;48.884;9.210;2022-12-07T15:14:17;12.60;;;10.97;;
3231;SDS011;1628;48.884;9.210;2022-12-07T15:16:45;13.40;;;12.20;;
3231;SDS011;1628;48.884;9.210;2022-12-07T15:19:13;13.53;;;12.20;;
3231;SDS011;1628;48.884;9.210;2022-12-07T15:21:40;13.77;;;12.47;;
3231;SDS011;1628;48.884;9.210;2022-12-07T15:24:08;12.80;;;11.67;;
3231;SDS011;1628;48.884;9.210;2022-12-07T15:26:36;13.57;;;12.27;;
3231;SDS011;1628;48.884;9.210;2022-12-07T15:29:03;15.13;;;13.53;;
3231;SDS011;1628;48.884;9.210;2022-12-07T15:31:30;15.20;;;13.70;;
3231;SDS011;1628;48.884;9.210;2022-12-07T15:33:58;15.53;;;14.03;;
3231;SDS011;1628;48.884;9.210;2022-12-07T15:36:25;17.33;;;14.47;;
3231;SDS011;1628;48.884;9.210;2022-12-07T15:38:55;16.40;;;14.77;;
3231;SDS011;1628;48.884;9.210;2022-12-07T15:41:22;16.37;;;14.30;;
3231;SDS011;1628;48.884;9.210;2022-12-07T15:43:49;15.40;;;13.80;;
3231;SDS011;1628;48.884;9.210;2022-12-07T15:46:34;17.37;;;15.30;;
3231;SDS011;1628;48.884;9.210;2022-12-07T15:49:03;17.33;;;15.57;;
3231;SDS011;1628;48.884;9.210;2022-12-07T15:51:32;18.00;;;15.40;;
3231;SDS011;1628;48.884;9.210;2022-12-07T15:53:58;17.43;;;15.63;;
3231;SDS011;1628;48.884;9.210;2022-12-07T15:56:25;18.20;;;16.37;;
3231;SDS011;1628;48.884;9.210;2022-12-07T15:58:52;20.10;;;18.00;;
3231;SDS011;1628;48.884;9.210;2022-12-07T16:01:18;21.00;;;16.40;;
3231;SDS011;1628;48.884;9.210;2022-12-07T16:03:45;22.57;;;17.00;;
3231;SDS011;1628;48.884;9.210;2022-12-07T16:06:16;18.53;;;16.53;;
3231;SDS011;1628;48.884;9.210;2022-12-07T16:08:43;19.97;;;17.50;;
3231;SDS011;1628;48.884;9.210;2022-12-07T16:11:11;17.87;;;16.07;;
3231;SDS011;1628;48.884;9.210;2022-12-07T16:13:38;19.20;;;17.17;;
3231;SDS011;1628;48.884;9.210;2022-12-07T16:16:05;18.53;;;16.63;;
3231;SDS011;1628;48.884;9.210;2022-12-07T16:18:34;19.90;;;16.10;;
3231;SDS011;1628;48.884;9.210;2022-12-07T16:21:01;18.70;;;16.70;;
3231;SDS011;1628;48.884;9.210;2022-12-07T16:23:29;18.50;;;16.50;;
3231;SDS011;1628;48.884;9.210;2022-12-07T16:26:02;20.30;;;16.03;;
3231;SDS011;1628;48.884;9.210;2022-12-07T16:28:30;18.23;;;16.23;;
3231;SDS011;1628;48.884;9.210;2022-12-07T16:30:59;16.80;;;15.10;;
3231;SDS011;1628;48.884;9.210;2022-12-07T16:33:27;18.43;;;15.57;;
3231;SDS011;1628;48.884;9.210;2022-12-07T16:35:53;17.57;;;15.87;;
3231;SDS011;1628;48.884;9.210;2022-12-07T16:38:20;17.30;;;15.50;;
3231;SDS011;1628;48.884;9.210;2022-12-07T16:40:48;17.90;;;16.10;;
3231;SDS011;1628;48.884;9.210;2022-12-07T16:43:15;16.33;;;14.63;;
3231;SDS011;1628;48.884;9.210;2022-12-07T16:45:41;16.83;;;14.90;;
3231;SDS011;1628;48.884;9.210;2022-12-07T16:48:08;17.63;;;15.20;;
3231;SDS011;1628;48.884;9.210;2022-12-07T16:50:35;18.20;;;15.83;;
3231;SDS011;1628;48.884;9.210;2022-12-07T16:53:05;17.13;;;15.43;;
3231;SDS011;1628;48.884;9.210;2022-12-07T16:55:33;16.20;;;14.70;;
3231;SDS011;1628;48.884;9.210;2022-12-07T16:58:03;16.37;;;14.70;;
3231;SDS011;1628;48.884;9.210;2022-12-07T17:00:29;16.20;;;14.70;;
3231;SDS011;1628;48.884;9.210;2022-12-07T17:02:56;17.73;;;15.67;;
3231;SDS011;1628;48.884;9.210;2022-12-07T17:05:23;27.63;;;22.40;;
3231;SDS011;1628;48.884;9.210;2022-12-07T17:07:51;19.83;;;17.00;;
3231;SDS011;1628;48.884;9.210;2022-12-07T17:10:18;17.20;;;15.40;;
3231;SDS011;1628;48.884;9.210;2022-12-07T17:12:45;18.30;;;16.40;;
3231;SDS011;1628;48.884;9.210;2022-12-07T17:15:14;18.20;;;16.40;;
3231;SDS011;1628;48.884;9.210;2022-12-07T17:17:42;16.87;;;15.13;;
3231;SDS011;1628;48.884;9.210;2022-12-07T17:20:09;17.03;;;15.40;;
3231;SDS011;1628;48.884;9.210;2022-12-07T17:22:36;14.80;;;12.93;;
3231;SDS011;1628;48.884;9.210;2022-12-07T17:25:03;24.83;;;22.23;;
3231;SDS011;1628;48.884;9.210;2022-12-07T17:27:30;17.13;;;15.50;;
3231;SDS011;1628;48.884;9.210;2022-12-07T17:29:57;19.67;;;17.67;;
3231;SDS011;1628;48.884;9.210;2022-12-07T17:32:25;14.63;;;13.23;;
3231;SDS011;1628;48.884;9.210;2022-12-07T17:34:52;15.17;;;13.77;;
3231;SDS011;1628;48.884;9.210;2022-12-07T17:37:19;16.57;;;14.97;;
3231;SDS011;1628;48.884;9.210;2022-12-07T17:39:45;16.00;;;14.40;;
3231;SDS011;1628;48.884;9.210;2022-12-07T17:42:12;16.83;;;15.10;;
3231;SDS011;1628;48.884;9.210;2022-12-07T17:44:56;17.90;;;16.13;;
3231;SDS011;1628;48.884;9.210;2022-12-07T17:47:23;17.20;;;15.60;;
3231;SDS011;1628;48.884;9.210;2022-12-07T17:49:51;15.43;;;14.03;;
3231;SDS011;1628;48.884;9.210;2022-12-07T17:52:18;14.87;;;13.47;;
3231;SDS011;1628;48.884;9.210;2022-12-07T17:55:02;14.20;;;12.90;;
3231;SDS011;1628;48.884;9.210;2022-12-07T17:57:29;13.77;;;12.47;;
3231;SDS011;1628;48.884;9.210;2022-12-07T17:59:56;14.37;;;12.97;;
3231;SDS011;1628;48.884;9.210;2022-12-07T18:02:23;13.90;;;12.70;;
3231;SDS011;1628;48.884;9.210;2022-12-07T18:04:49;12.37;;;11.20;;
3231;SDS011;1628;48.884;9.210;2022-12-07T18:07:18;13.90;;;12.70;;
3231;SDS011;1628;48.884;9.210;2022-12-07T18:09:44;13.33;;;12.07;;
3231;SDS011;1628;48.884;9.210;2022-12-07T18:12:11;15.90;;;14.13;;
3231;SDS011;1628;48.884;9.210;2022-12-07T18:14:38;13.30;;;12.10;;
3231;SDS011;1628;48.884;9.210;2022-12-07T18:17:04;13.30;;;12.10;;
3231;SDS011;1628;48.884;9.210;2022-12-07T18:19:31;12.37;;;11.17;;
3231;SDS011;1628;48.884;9.210;2022-12-07T18:22:02;15.17;;;13.57;;
3231;SDS011;1628;48.884;9.210;2022-12-07T18:24:29;12.40;;;11.20;;
3231;SDS011;1628;48.884;9.210;2022-12-07T18:26:56;11.90;;;10.73;;
3231;SDS011;1628;48.884;9.210;2022-12-07T18:29:22;11.90;;;10.80;;
3231;SDS011;1628;48.884;9.210;2022-12-07T18:31:49;12.70;;;11.50;;
3231;SDS011;1628;48.884;9.210;2022-12-07T18:34:18;11.63;;;10.50;;
3231;SDS011;1628;48.884;9.210;2022-12-07T18:36:45;10.43;;;9.50;;
3231;SDS011;1628;48.884;9.210;2022-12-07T18:39:15;11.10;;;10.10;;
3231;SDS011;1628;48.884;9.210;2022-12-07T18:41:42;10.97;;;10.03;;
3231;SDS011;1628;48.884;9.210;2022-12-07T18:44:09;10.60;;;9.70;;
3231;SDS011;1628;48.884;9.210;2022-12-07T18:46:37;9.23;;;8.40;;
3231;SDS011;1628;48.884;9.210;2022-12-07T18:49:05;9.57;;;8.73;;
3231;SDS011;1628;48.884;9.210;2022-12-07T18:51:31;10.10;;;9.20;;
3231;SDS011;1628;48.884;9.210;2022-12-07T18:53:58;9.70;;;8.90;;
3231;SDS011;1628;48.884;9.210;2022-12-07T18:56:27;10.47;;;9.57;;
3231;SDS011;1628;48.884;9.210;2022-12-07T18:58:55;10.80;;;9.90;;
3231;SDS011;1628;48.884;9.210;2022-12-07T19:01:41;10.03;;;9.20;;
3231;SDS011;1628;48.884;9.210;2022-12-07T19:04:09;11.23;;;10.23;;
3231;SDS011;1628;48.884;9.210;2022-12-07T19:06:36;11.60;;;10.60;;
3231;SDS011;1628;48.884;9.210;2022-12-07T19:09:05;10.50;;;9.50;;
3231;SDS011;1628;48.884;9.210;2022-12-07T19:11:33;10.07;;;9.13;;
3231;SDS011;1628;48.884;9.210;2022-12-07T19:14:15;11.27;;;10.27;;
3231;SDS011;1628;48.884;9.210;2022-12-07T19:16:47;11.43;;;10.43;;
3231;SDS011;1628;48.884;9.210;2022-12-07T19:19:16;11.10;;;10.10;;
3231;SDS011;1628;48.884;9.210;2022-12-07T19:21:43;12.73;;;11.50;;
3231;SDS011;1628;48.884;9.210;2022-12-07T19:24:10;12.00;;;10.90;;
3231;SDS011;1628;48.884;9.210;2022-12-07T19:26:38;13.07;;;11.90;;
3231;SDS011;1628;48.884;9.210;2022-12-07T19:29:05;11.57;;;10.57;;
3231;SDS011;1628;48.884;9.210;2022-12-07T19:31:32;13.57;;;12.37;;
3231;SDS011;1628;48.884;9.210;2022-12-07T19:33:58;13.40;;;12.10;;
3231;SDS011;1628;48.884;9.210;2022-12-07T19:36:25;13.60;;;12.40;;
3231;SDS011;1628;48.884;9.210;2022-12-07T19:38:52;13.40;;;12.00;;
3231;SDS011;1628;48.884;9.210;2022-12-07T19:41:18;13.70;;;12.40;;
3231;SDS011;1628;48.884;9.210;2022-12-07T19:44:03;12.97;;;11.77;;
3231;SDS011;1628;48.884;9.210;2022-12-07T19:46:31;13.70;;;12.40;;
3231;SDS011;1628;48.884;9.210;2022-12-07T19:48:58;14.23;;;12.93;;
3231;SDS011;1628;48.884;9.210;2022-12-07T19:51:26;14.60;;;13.20;;
3231;SDS011;1628;48.884;9.210;2022-12-07T19:53:54;13.13;;;12.03;;
3231;SDS011;1628;48.884;9.210;2022-12-07T19:56:22;14.37;;;13.07;;
3231;SDS011;1628;48.884;9.210;2022-12-07T19:58:50;14.20;;;12.90;;
3231;SDS011;1628;48.884;9.210;2022-12-07T20:01:19;14.23;;;12.83;;
3231;SDS011;1628;48.884;9.210;2022-12-07T20:03:46;17.07;;;15.27;;
3231;SDS011;1628;48.884;9.210;2022-12-07T20:06:14;15.00;;;13.60;;
3231;SDS011;1628;48.884;9.210;2022-12-07T20:08:43;13.60;;;12.30;;
3231;SDS011;1628;48.884;9.210;2022-12-07T20:11:11;13.13;;;11.93;;
3231;SDS011;1628;48.884;9.210;2022-12-07T20:14:01;14.13;;;12.80;;
3231;SDS011;1628;48.884;9.210;2022-12-07T20:16:31;14.03;;;12.67;;
3231;SDS011;1628;48.884;9.210;2022-12-07T20:18:58;13.63;;;12.43;;
3231;SDS011;1628;48.884;9.210;2022-12-07T20:21:26;14.50;;;13.10;;
3231;SDS011;1628;48.884;9.210;2022-12-07T20:23:52;14.90;;;13.50;;
3231;SDS011;1628;48.884;9.210;2022-12-07T20:26:20;14.97;;;13.57;;
3231;SDS011;1628;48.884;9.210;2022-12-07T20:28:47;15.13;;;13.63;;
3231;SDS011;1628;48.884;9.210;2022-12-07T20:31:14;14.40;;;13.00;;
3231;SDS011;1628;48.884;9.210;2022-12-07T20:33:43;16.17;;;13.83;;
3231;SDS011;1628;48.884;9.210;2022-12-07T20:36:11;14.57;;;13.23;;
3231;SDS011;1628;48.884;9.210;2022-12-07T20:38:38;14.40;;;13.10;;
3231;SDS011;1628;48.884;9.210;2022-12-07T20:41:06;15.37;;;13.87;;